createdAt,value
2019-02-17T00:02:04.961Z,14.53
2019-02-17T00:04:33.876Z,13.97
2019-02-17T00:07:03.832Z,14.43
2019-02-17T00:09:32.681Z,13.33
2019-02-17T00:12:01.708Z,13.50
2019-02-17T00:14:30.796Z,14.47
2019-02-17T00:16:59.904Z,14.43
2019-02-17T00:19:28.966Z,13.57
2019-02-17T00:21:58.009Z,14.53
2019-02-17T00:24:26.817Z,14.13
2019-02-17T00:26:55.905Z,13.57
2019-02-17T00:29:25.040Z,13.23
2019-02-17T00:31:53.851Z,13.67
2019-02-17T00:34:22.922Z,14.07
2019-02-17T00:36:51.706Z,14.10
2019-02-17T00:39:20.557Z,13.13
2019-02-17T00:41:49.411Z,13.67
2019-02-17T00:44:18.244Z,14.30
2019-02-17T00:46:47.053Z,13.60
2019-02-17T00:49:16.137Z,13.23
2019-02-17T00:51:45.241Z,13.87
2019-02-17T00:54:14.052Z,13.97
2019-02-17T00:56:42.824Z,14.07
2019-02-17T00:59:11.929Z,13.73
2019-02-17T01:01:41.005Z,13.57
2019-02-17T01:04:09.812Z,13.63
2019-02-17T01:06:38.709Z,15.07
2019-02-17T01:09:07.958Z,15.00
2019-02-17T01:11:36.870Z,13.90
2019-02-17T01:14:05.818Z,14.33
2019-02-17T01:16:34.905Z,13.07
2019-02-17T01:19:04.073Z,13.77
2019-02-17T01:21:32.850Z,14.60
2019-02-17T01:24:01.620Z,13.07
2019-02-17T01:26:30.488Z,13.33
2019-02-17T01:28:59.536Z,14.97
2019-02-17T01:31:28.698Z,14.00
2019-02-17T01:33:57.812Z,14.73
2019-02-17T01:36:26.848Z,13.43
2019-02-17T01:38:55.881Z,14.20
2019-02-17T01:41:24.813Z,14.23
2019-02-17T01:43:53.589Z,13.23
2019-02-17T01:46:22.524Z,13.17
2019-02-17T01:48:51.359Z,13.27
2019-02-17T01:51:20.226Z,12.60
2019-02-17T01:53:49.054Z,13.77
2019-02-17T01:56:18.105Z,13.40
2019-02-17T01:58:46.917Z,12.00
2019-02-17T02:01:17.337Z,13.93
2019-02-17T02:03:46.293Z,13.03
2019-02-17T02:06:15.245Z,13.00
2019-02-17T02:08:44.297Z,12.50
2019-02-17T02:11:13.333Z,13.30
2019-02-17T02:13:42.388Z,11.73
2019-02-17T02:16:11.197Z,12.73
2019-02-17T02:18:40.004Z,13.57
2019-02-17T02:21:08.778Z,12.83
2019-02-17T02:23:37.882Z,12.60
2019-02-17T02:26:06.753Z,12.47
2019-02-17T02:28:35.538Z,13.77
2019-02-17T02:31:04.457Z,14.90
2019-02-17T02:33:33.516Z,16.70
2019-02-17T02:36:02.639Z,17.33
2019-02-17T02:38:31.444Z,16.43
2019-02-17T02:41:00.263Z,16.33
2019-02-17T02:43:29.021Z,15.83
2019-02-17T02:45:57.793Z,14.60
2019-02-17T02:48:26.710Z,15.90
2019-02-17T02:50:55.485Z,13.83
2019-02-17T02:53:24.712Z,14.37
2019-02-17T02:55:53.743Z,15.00
2019-02-17T02:58:22.506Z,14.47
2019-02-17T03:00:51.315Z,14.63
2019-02-17T03:03:20.640Z,16.27
2019-02-17T03:05:58.993Z,13.20
2019-02-17T03:08:28.745Z,13.30
2019-02-17T03:10:57.529Z,14.77
2019-02-17T03:13:26.317Z,14.27
2019-02-17T03:15:55.138Z,14.20
2019-02-17T03:18:24.676Z,14.17
2019-02-17T03:20:53.754Z,12.60
2019-02-17T03:23:22.598Z,13.47
2019-02-17T03:25:51.504Z,14.00
2019-02-17T03:28:21.588Z,15.13
2019-02-17T03:30:50.642Z,14.40
2019-02-17T03:33:19.444Z,13.80
2019-02-17T03:35:48.255Z,13.83
2019-02-17T13:16:34.109Z,7.33
2019-02-17T13:19:02.961Z,6.58
2019-02-17T13:21:31.800Z,7.00
2019-02-17T13:24:00.732Z,6.55
2019-02-17T13:26:29.582Z,5.75
2019-02-17T13:28:58.427Z,6.70
2019-02-17T13:31:27.392Z,5.90
2019-02-17T13:33:56.309Z,7.00
2019-02-17T13:36:25.213Z,6.40
2019-02-17T13:38:54.060Z,5.87
2019-02-17T13:41:23.101Z,6.00
2019-02-17T13:43:52.166Z,5.20
2019-02-17T13:46:21.010Z,5.17
2019-02-17T13:48:49.882Z,4.80
2019-02-17T13:51:21.967Z,4.50
2019-02-17T13:53:50.793Z,4.30
2019-02-17T13:56:19.684Z,3.87
2019-02-17T13:58:48.717Z,3.93
2019-02-17T14:01:17.858Z,3.63
2019-02-17T14:03:48.798Z,3.30
2019-02-17T14:06:17.271Z,3.30
2019-02-17T14:08:46.146Z,3.47
2019-02-17T14:11:15.259Z,3.27
2019-02-17T14:13:44.119Z,3.27
2019-02-17T14:16:12.964Z,3.60
2019-02-17T14:18:41.804Z,3.30
2019-02-17T14:21:10.704Z,3.20
2019-02-17T14:23:39.729Z,2.97
2019-02-17T14:26:08.520Z,2.77
2019-02-17T14:28:37.610Z,3.43
2019-02-17T14:31:06.529Z,5.20
2019-02-17T14:33:35.388Z,5.47
2019-02-17T14:36:04.225Z,5.10
2019-02-17T14:38:33.276Z,4.13
2019-02-17T14:41:02.389Z,4.73
2019-02-17T14:43:31.409Z,3.70
2019-02-17T14:46:00.249Z,3.27
2019-02-17T14:48:29.122Z,3.97
2019-02-17T14:50:58.298Z,3.67
2019-02-17T14:53:27.084Z,3.27
2019-02-17T14:55:56.198Z,2.57
2019-02-17T15:17:14.872Z,2.30
2019-02-17T15:19:43.717Z,2.40
2019-02-17T15:25:41.383Z,2.30
2019-02-17T15:28:10.492Z,2.30
2019-02-17T15:30:39.621Z,1.33
2019-02-17T15:33:08.770Z,2.00
2019-02-17T15:35:37.581Z,1.93
2019-02-17T15:38:06.625Z,1.90
2019-02-17T15:40:35.486Z,1.80
2019-02-17T15:43:04.531Z,1.83
2019-02-17T15:45:33.503Z,2.23
2019-02-17T15:48:02.365Z,1.50
2019-02-17T15:50:31.224Z,2.10
2019-02-17T15:53:00.236Z,2.20
2019-02-17T15:55:29.297Z,1.90
2019-02-17T15:57:58.098Z,2.20
2019-02-17T16:00:27.145Z,1.97
2019-02-17T16:02:55.942Z,2.67
2019-02-17T16:05:24.782Z,2.43
2019-02-17T16:07:53.725Z,1.87
2019-02-17T16:10:22.517Z,2.23
2019-02-17T16:12:51.396Z,2.20
2019-02-17T16:15:20.358Z,2.17
2019-02-17T16:17:49.616Z,1.67
2019-02-17T16:20:18.641Z,2.07
2019-02-17T16:22:47.993Z,1.77
2019-02-17T16:25:17.361Z,1.63
2019-02-17T16:27:46.229Z,2.07
2019-02-17T16:30:15.618Z,2.77
2019-02-17T16:32:44.541Z,1.77
2019-02-17T16:35:13.337Z,2.43
2019-02-17T16:37:42.275Z,2.33
2019-02-17T16:40:12.012Z,2.60
2019-02-17T16:42:40.824Z,2.67
2019-02-17T16:45:11.014Z,2.70
2019-02-17T16:47:40.372Z,3.57
2019-02-17T16:50:11.851Z,4.10
2019-02-17T16:52:41.293Z,4.50
2019-02-17T16:55:11.002Z,5.20
2019-02-17T16:57:41.063Z,5.17
2019-02-17T17:00:12.040Z,3.50
2019-02-17T17:02:41.120Z,3.10
2019-02-17T17:05:10.469Z,4.13
2019-02-17T17:07:39.518Z,3.97
2019-02-17T17:10:08.734Z,3.83
2019-02-17T17:12:37.793Z,3.03
2019-02-17T17:15:06.896Z,3.23
2019-02-17T17:17:35.686Z,4.53
2019-02-17T17:20:04.833Z,2.73
2019-02-17T17:22:34.009Z,2.93
2019-02-17T17:25:02.957Z,2.80
2019-02-17T17:27:31.827Z,3.40
2019-02-17T17:30:00.687Z,3.17
2019-02-17T17:32:29.824Z,3.43
2019-02-17T17:34:59.424Z,4.40
2019-02-17T17:37:28.670Z,3.53
2019-02-17T17:39:57.797Z,3.47
2019-02-17T17:44:49.460Z,4.10
2019-02-17T17:47:18.540Z,4.47
2019-02-17T17:49:48.020Z,4.57
2019-02-17T17:52:16.825Z,4.67
2019-02-17T17:54:46.121Z,4.30
2019-02-17T17:57:15.161Z,3.60
2019-02-17T17:59:43.989Z,4.50
2019-02-17T18:02:12.917Z,4.37
2019-02-17T18:04:42.084Z,5.53
2019-02-17T18:07:11.141Z,5.13
2019-02-17T18:09:39.949Z,3.47
2019-02-17T18:12:08.863Z,4.40
2019-02-17T18:14:38.157Z,3.87
2019-02-17T18:17:07.453Z,5.03
2019-02-17T18:19:36.668Z,5.07
2019-02-17T18:22:05.629Z,5.00
2019-02-17T18:24:34.751Z,4.60
2019-02-17T18:27:04.780Z,4.70
2019-02-17T18:29:33.949Z,4.60
2019-02-17T18:32:03.273Z,4.93
2019-02-17T18:34:32.293Z,5.40
2019-02-17T18:37:01.313Z,7.33
2019-02-17T18:39:30.855Z,6.80
2019-02-17T18:41:59.928Z,6.30
2019-02-17T18:44:29.799Z,5.40
2019-02-17T18:46:58.867Z,5.47
2019-02-17T18:49:28.162Z,5.47
2019-02-17T18:51:57.028Z,5.33
2019-02-17T18:54:26.080Z,5.10
2019-02-17T18:56:55.050Z,5.20
2019-02-17T18:59:24.094Z,5.20
2019-02-17T19:01:53.286Z,5.73
2019-02-17T19:04:22.229Z,5.37
2019-02-17T19:06:51.643Z,5.70
2019-02-17T19:09:20.647Z,6.17
2019-02-17T19:11:49.984Z,5.63
2019-02-17T19:14:18.950Z,5.87
2019-02-17T19:16:48.053Z,6.07
2019-02-17T19:19:17.247Z,6.33
2019-02-17T19:21:46.335Z,6.80
2019-02-17T19:24:15.321Z,6.53
2019-02-17T19:26:44.548Z,6.77
2019-02-17T19:29:13.857Z,4.73
2019-02-17T19:31:42.897Z,5.37
2019-02-17T19:34:11.785Z,5.83
2019-02-17T19:36:40.576Z,5.50
2019-02-17T19:39:09.513Z,4.40
2019-02-17T19:41:38.453Z,7.00
2019-02-17T19:44:07.288Z,5.63
2019-02-17T19:46:36.213Z,5.83
2019-02-17T19:49:05.237Z,6.07
2019-02-17T19:51:34.144Z,6.40
2019-02-17T19:54:03.290Z,6.53
2019-02-17T19:56:32.718Z,6.00
2019-02-17T19:59:01.999Z,6.53
2019-02-17T20:01:31.317Z,6.93
2019-02-17T20:04:18.264Z,6.60
2019-02-17T20:06:47.998Z,6.73
2019-02-17T20:09:19.175Z,5.73
2019-02-17T20:11:52.237Z,5.07
2019-02-17T20:14:21.341Z,4.53
2019-02-17T20:16:50.439Z,4.53
2019-02-17T20:19:19.344Z,4.93
2019-02-17T20:21:48.256Z,4.40
2019-02-17T20:24:17.462Z,5.13
2019-02-17T20:26:46.396Z,5.60
2019-02-17T20:29:15.298Z,5.43
2019-02-17T20:31:44.205Z,6.03
2019-02-17T20:34:14.628Z,5.47
2019-02-17T20:36:43.592Z,5.67
2019-02-17T20:39:12.833Z,5.93
2019-02-17T20:41:41.700Z,5.80
2019-02-17T20:44:10.881Z,5.53
2019-02-17T20:46:40.033Z,5.63
2019-02-17T20:49:08.880Z,4.70
2019-02-17T20:51:37.862Z,5.23
2019-02-17T20:54:06.661Z,5.40
2019-02-17T20:56:35.688Z,5.23
2019-02-17T20:59:04.621Z,5.77
2019-02-17T21:01:33.777Z,5.70
2019-02-17T21:04:02.585Z,6.33
2019-02-17T21:06:31.401Z,5.67
2019-02-17T21:09:00.754Z,5.90
2019-02-17T21:11:29.617Z,6.23
2019-02-17T21:13:58.929Z,6.97
2019-02-17T21:16:27.905Z,6.70
2019-02-17T21:18:56.944Z,5.80
2019-02-17T21:21:26.125Z,5.57
2019-02-17T21:23:54.901Z,6.13
2019-02-17T21:26:26.409Z,6.20
2019-02-17T21:28:54.551Z,7.40
2019-02-17T21:31:23.529Z,7.00
2019-02-17T21:33:52.804Z,7.43
2019-02-17T21:36:23.445Z,6.90
2019-02-17T21:38:52.377Z,7.43
2019-02-17T21:41:21.813Z,6.57
2019-02-17T21:43:50.855Z,6.90
2019-02-17T21:46:19.626Z,7.63
2019-02-17T21:48:48.438Z,7.23
2019-02-17T21:51:17.518Z,6.90
2019-02-17T21:53:46.369Z,7.50
2019-02-17T21:56:15.181Z,7.33
2019-02-17T21:58:44.017Z,7.13
2019-02-17T22:01:13.097Z,6.77
2019-02-17T22:03:42.147Z,7.40
2019-02-17T22:06:11.000Z,7.60
2019-02-17T22:08:39.810Z,7.07
2019-02-17T22:11:08.597Z,7.10
2019-02-17T22:13:37.409Z,7.80
2019-02-17T22:16:06.280Z,7.97
2019-02-17T22:18:35.445Z,7.00
2019-02-17T22:21:04.430Z,6.83
2019-02-17T22:23:33.298Z,7.50
2019-02-17T22:26:02.203Z,7.80
2019-02-17T22:28:31.318Z,9.23
2019-02-17T22:31:00.123Z,9.37
2019-02-17T22:33:28.896Z,8.73
2019-02-17T22:35:57.972Z,8.63
2019-02-17T22:38:26.904Z,9.47
2019-02-17T22:40:55.805Z,9.20
2019-02-17T22:43:24.856Z,9.30
2019-02-17T22:45:53.931Z,8.47
2019-02-17T22:48:22.961Z,9.33
2019-02-17T22:50:51.774Z,8.50
2019-02-17T22:53:20.587Z,8.97
2019-02-17T22:55:49.398Z,8.43
2019-02-17T22:58:18.274Z,8.17
2019-02-17T23:00:58.170Z,7.97
2019-02-17T23:03:27.605Z,8.10
2019-02-17T23:05:57.077Z,8.40
2019-02-17T23:08:26.196Z,8.37
2019-02-17T23:10:55.325Z,7.83
2019-02-17T23:13:24.809Z,8.43
2019-02-17T23:15:53.695Z,9.10
2019-02-17T23:18:22.635Z,9.33
2019-02-17T23:20:51.709Z,9.60
2019-02-17T23:23:20.756Z,9.30
2019-02-17T23:25:49.814Z,10.20
2019-02-17T23:28:18.627Z,9.43
2019-02-17T23:30:48.023Z,10.30
2019-02-17T23:33:17.031Z,10.97
2019-02-17T23:35:46.397Z,9.93
2019-02-17T23:38:15.392Z,9.13
2019-02-17T23:40:44.470Z,8.53
2019-02-17T23:43:13.782Z,10.63
2019-02-17T23:45:44.630Z,9.80
2019-02-17T23:48:13.889Z,8.37
2019-02-17T23:50:42.974Z,11.43
2019-02-17T23:53:12.058Z,9.47
2019-02-17T23:55:40.951Z,9.53
2019-02-17T23:58:10.306Z,9.13
